createdAt,value
2022-08-19T07:25:04.131Z,16.38
2022-08-19T08:38:39.157Z,19.08
2022-08-19T08:41:10.318Z,19.80
2022-08-19T08:43:39.153Z,22.08
2022-08-19T08:46:08.725Z,19.30
2022-08-19T08:48:55.642Z,19.25
2022-08-19T08:51:33.185Z,18.70
2022-08-19T08:54:05.586Z,17.40
2022-08-19T08:56:32.702Z,17.90
2022-08-19T08:59:02.802Z,18.05
2022-08-19T09:01:30.909Z,20.80
2022-08-19T09:04:02.667Z,20.25
2022-08-19T09:06:40.691Z,19.80
2022-08-19T09:09:15.335Z,18.33
2022-08-19T09:11:44.456Z,19.33
2022-08-19T09:14:47.413Z,18.88
2022-08-19T09:17:09.448Z,17.52
2022-08-19T10:22:23.316Z,12.02
2022-08-19T10:24:53.558Z,3.35
2022-08-19T10:27:20.614Z,2.58
2022-08-19T10:29:48.686Z,3.05
2022-08-19T10:32:15.703Z,3.65
2022-08-19T10:34:48.294Z,4.85
2022-08-19T10:37:28.840Z,5.07
2022-08-19T10:39:58.671Z,4.47
2022-08-19T10:42:25.727Z,4.78
2022-08-19T10:44:52.686Z,3.85
2022-08-19T10:50:47.410Z,4.60
2022-08-19T10:53:14.461Z,5.22
2022-08-19T10:56:00.001Z,5.68
2022-08-19T10:58:27.141Z,5.20
2022-08-19T11:00:54.888Z,5.55
2022-08-19T11:03:21.776Z,6.05
2022-08-19T11:05:57.607Z,5.88
2022-08-19T11:08:25.670Z,6.13
2022-08-19T11:10:56.421Z,6.15
2022-08-19T12:11:13.025Z,5.93
2022-08-19T12:13:40.071Z,4.93
2022-08-19T12:16:12.380Z,5.88
2022-08-19T12:18:44.957Z,5.53
2022-08-19T12:21:13.286Z,5.32
2022-08-19T12:23:40.356Z,5.35
2022-08-19T12:26:07.278Z,5.75
2022-08-19T12:28:34.209Z,6.25
2022-08-19T12:31:00.910Z,5.57
2022-08-19T12:33:29.307Z,5.70
2022-08-19T12:35:56.184Z,5.60
2022-08-19T12:38:26.317Z,6.05
2022-08-19T12:40:55.984Z,5.03
2022-08-19T12:43:25.301Z,7.05
2022-08-19T12:45:52.004Z,19.30
2022-08-19T12:48:33.440Z,28.33
2022-08-19T12:51:03.033Z,5.65
2022-08-19T12:53:30.097Z,5.05
2022-08-19T12:55:58.107Z,4.75
2022-08-19T12:58:27.327Z,4.73
2022-08-19T15:07:36.342Z,2.20
2022-08-19T15:10:04.231Z,2.25
2022-08-19T15:12:31.533Z,2.80
2022-08-19T15:14:58.196Z,2.08
2022-08-19T15:17:43.593Z,2.58
2022-08-19T15:20:14.276Z,1.90
2022-08-19T15:22:42.272Z,2.22
2022-08-19T15:25:09.714Z,2.25
2022-08-19T15:27:40.744Z,1.90
2022-08-19T15:30:18.370Z,2.22
2022-08-19T15:32:48.863Z,2.40
2022-08-19T15:35:16.271Z,4.25
2022-08-19T15:37:43.265Z,8.18
2022-08-19T15:40:10.159Z,9.40
2022-08-19T15:42:37.731Z,2.65
2022-08-19T15:45:07.811Z,2.50
2022-08-19T15:47:35.672Z,2.60
2022-08-19T15:50:10.825Z,2.47
2022-08-19T15:52:49.405Z,2.50
2022-08-19T15:55:33.673Z,2.58
2022-08-19T15:58:30.778Z,1.88
2022-08-19T16:01:17.820Z,2.42
2022-08-19T16:04:14.938Z,2.45
2022-08-19T16:06:49.830Z,2.10
2022-08-19T16:09:17.171Z,2.50
2022-08-19T16:11:45.806Z,2.20
2022-08-19T16:14:13.885Z,2.20
2022-08-19T16:16:40.603Z,2.63
2022-08-19T16:19:10.206Z,2.00
2022-08-19T16:21:41.559Z,2.00
2022-08-19T16:24:10.385Z,1.80
2022-08-19T16:26:37.513Z,2.17
2022-08-19T16:29:08.688Z,2.03
2022-08-19T16:31:36.582Z,2.30
2022-08-19T16:34:04.100Z,2.20
2022-08-19T16:36:31.397Z,2.03
2022-08-19T16:38:58.241Z,2.65
2022-08-19T16:41:25.071Z,2.38
2022-08-19T16:43:52.671Z,2.70
2022-08-19T16:46:20.498Z,3.20
2022-08-19T16:48:49.524Z,3.63
2022-08-19T16:51:16.293Z,3.70
2022-08-19T16:53:43.694Z,3.60
2022-08-19T20:15:42.385Z,5.38
2022-08-19T20:18:10.901Z,4.80
2022-08-19T20:20:37.671Z,5.03
2022-08-19T20:23:05.478Z,4.97
2022-08-19T20:25:34.120Z,5.05
2022-08-19T20:28:01.764Z,4.80
2022-08-19T20:30:28.897Z,5.18
2022-08-19T20:33:00.752Z,4.82
2022-08-19T20:35:27.703Z,4.97
2022-08-19T20:37:58.290Z,4.70
2022-08-19T20:40:27.067Z,4.70
2022-08-19T20:42:54.763Z,4.50
2022-08-19T20:45:32.928Z,4.80
2022-08-19T20:48:03.255Z,5.03
2022-08-19T20:50:33.606Z,5.07
2022-08-19T20:53:01.208Z,5.10
2022-08-19T20:55:30.551Z,5.25
2022-08-19T20:57:58.842Z,5.15
2022-08-19T21:00:25.859Z,4.80
2022-08-19T21:02:52.867Z,5.78
2022-08-19T21:05:19.984Z,5.25
2022-08-19T21:07:47.013Z,5.18
2022-08-19T21:10:15.462Z,5.45
2022-08-19T21:12:44.483Z,5.10
2022-08-19T21:15:11.605Z,5.15
2022-08-19T21:17:38.723Z,5.72
2022-08-19T21:20:07.922Z,5.20
2022-08-19T21:22:34.985Z,5.30
2022-08-19T21:25:03.292Z,5.20
2022-08-19T21:27:30.306Z,5.28
2022-08-19T21:29:57.312Z,5.25
2022-08-19T21:32:24.305Z,5.13
2022-08-19T21:34:52.817Z,5.43
2022-08-19T21:37:25.117Z,5.43
2022-08-19T21:39:56.374Z,5.75
2022-08-19T21:42:24.173Z,6.13
2022-08-19T21:44:51.617Z,5.38
2022-08-19T21:47:18.517Z,5.75
2022-08-19T21:49:45.286Z,5.75
2022-08-19T21:52:13.409Z,5.55
2022-08-19T21:54:40.408Z,6.40
2022-08-19T21:57:10.132Z,6.72
2022-08-19T21:59:41.386Z,6.47
2022-08-19T22:02:22.111Z,6.78
2022-08-19T22:04:52.951Z,6.32
2022-08-19T22:07:21.082Z,5.77
2022-08-19T22:09:49.446Z,6.00
2022-08-19T22:12:25.544Z,5.80
2022-08-19T22:14:54.091Z,6.30
2022-08-19T22:17:21.351Z,6.25
2022-08-19T22:19:48.836Z,6.30
2022-08-19T22:22:27.412Z,6.18
2022-08-19T22:25:00.364Z,6.03
2022-08-19T22:27:28.262Z,5.85
2022-08-19T22:29:55.554Z,6.03
2022-08-19T22:32:27.891Z,5.25
2022-08-19T22:34:58.018Z,5.85
2022-08-19T22:37:25.113Z,5.88
2022-08-19T22:39:51.979Z,6.10
2022-08-19T22:42:20.828Z,5.85
2022-08-19T22:44:48.688Z,6.20
2022-08-19T22:47:15.541Z,5.90
2022-08-19T22:49:42.984Z,5.55
2022-08-19T22:52:17.902Z,5.72
2022-08-19T22:54:51.428Z,5.93
2022-08-19T22:57:19.969Z,6.15
2022-08-19T22:59:51.298Z,6.75
2022-08-19T23:02:28.414Z,6.22
2022-08-19T23:04:55.514Z,6.45
2022-08-19T23:07:23.586Z,6.32
2022-08-19T23:09:51.099Z,6.25
2022-08-19T23:12:28.518Z,6.68
2022-08-19T23:14:55.322Z,6.10
2022-08-19T23:17:23.248Z,5.90
2022-08-19T23:19:50.781Z,6.55
2022-08-19T23:22:19.025Z,6.32
2022-08-19T23:24:45.857Z,5.88
2022-08-19T23:27:31.380Z,5.53
2022-08-19T23:30:17.004Z,5.82
2022-08-19T23:32:46.102Z,6.03
2022-08-19T23:35:13.276Z,6.00
2022-08-19T23:37:40.463Z,6.25
2022-08-19T23:40:08.957Z,6.18
2022-08-19T23:42:35.980Z,6.07
2022-08-19T23:45:07.296Z,6.13
2022-08-19T23:47:35.251Z,6.35
2022-08-19T23:50:06.065Z,5.68
2022-08-19T23:52:35.564Z,5.38
2022-08-19T23:55:08.764Z,5.95
2022-08-19T23:57:35.808Z,5.35
